Latest Weather Observations for Wilsons Promontory

IDV60801

Issued at 11:31 pm EDT Tuesday 3 March 2015 (issued every 30 minutes, with the page automatically refreshed every 10 minutes)

About weather observations | Map of weather stations | Latest weather observations for VIC | Other Formats
Station Details ID: 085096 Name: WILSONS PROMONTORY LIGHTHOUSE Lat: -39.13 Lon: 146.42 Height: 95.0 m
Data from the previous 72 hours. | See also: Recent months at Wilsons Promontory
Date/Time
EDT
Temp
°C
App
Temp
°C
Dew
Point
Rel
Hum
%
Delta-T
°C
Wind Press
QNH
hPa
Press
MSL
hPa
Rain
since 9 am
mm
Dir
 
Spd
km/h
Gust
km/h
Spd
kts
Gust
kts
03/11:30pm 16.5 11.6 11.4 72 2.8 W 28 41 15 22 1015.2 - 0.0
03/11:00pm 16.5 11.9 11.0 70 3.0 W 26 35 14 19 1015.3 - 0.0
03/10:30pm 16.6 11.7 11.3 71 2.9 W 28 43 15 23 1015.4 - 0.0
03/10:00pm 16.6 13.3 11.5 72 2.8 W 20 30 11 16 1015.5 - 0.0
03/09:30pm 16.8 13.3 12.3 75 2.5 W 22 37 12 20 1015.3 - 0.0
03/09:00pm 16.7 12.9 12.5 76 2.3 W 24 33 13 18 1015.2 1015.0 0.0
03/08:30pm 16.7 13.7 12.5 76 2.3 W 20 32 11 17 1015.0 - 0.0
03/08:00pm 17.0 13.5 12.3 74 2.6 W 22 35 12 19 1014.7 - 0.0
03/07:30pm 17.3 14.3 12.4 73 2.7 W 20 32 11 17 1014.8 - 0.0
03/07:00pm 17.7 13.5 12.4 71 2.9 W 26 33 14 18 1014.6 - 0.0
03/06:30pm 18.0 14.6 12.5 70 3.1 W 22 32 12 17 1014.5 - 0.0
03/06:00pm 18.3 14.2 12.7 70 3.1 W 26 33 14 18 1014.7 1014.5 0.0
03/05:30pm 18.5 14.4 12.7 69 3.3 W 26 35 14 19 1014.8 - 0.0
03/05:00pm 18.8 13.8 12.3 66 3.6 W 30 35 16 19 1015.0 - 0.0
03/04:30pm 19.2 15.2 12.9 67 3.6 W 26 33 14 18 1015.1 - 0.0
03/04:00pm 19.1 13.8 12.4 65 3.8 W 32 37 17 20 1015.2 - 0.0
03/03:30pm 19.1 15.0 12.8 67 3.6 W 26 35 14 19 1015.5 - 0.0
03/03:00pm 18.6 15.2 12.6 68 3.4 W 22 35 12 19 1015.7 1015.5 0.0
03/02:30pm 17.9 13.6 11.9 68 3.3 WSW 26 35 14 19 1016.0 - 0.0
03/02:00pm 17.9 12.7 11.7 67 3.4 WSW 30 35 16 19 1016.1 - 0.0
03/01:30pm 17.9 14.3 11.9 68 3.3 WSW 22 30 12 16 1016.1 - 0.0
03/01:00pm 18.2 14.5 11.5 65 3.7 SW 22 26 12 14 1016.5 - 0.0
03/12:30pm 18.0 14.3 11.6 66 3.5 SW 22 30 12 16 1016.8 - 0.0
03/12:00pm 17.9 14.7 11.2 65 3.6 WSW 19 24 10 13 1017.0 1016.8 0.0
03/11:30am 17.7 13.9 11.3 66 3.5 SW 22 28 12 15 1017.0 - 0.0
03/11:00am 17.4 13.9 10.8 65 3.6 WSW 20 28 11 15 1017.2 - 0.0
03/10:30am 17.2 12.2 11.0 67 3.4 WSW 28 33 15 18 1016.9 - 0.0
03/10:00am 17.0 11.1 11.3 69 3.1 SW 33 43 18 23 1016.5 - 0.0
03/09:30am 17.0 10.8 11.3 69 3.1 SW 35 41 19 22 1016.4 - 0.0
03/09:00am 16.5 10.8 11.2 71 2.9 WSW 32 39 17 21 1016.3 1016.1 0.0
03/08:30am 16.4 10.8 12.2 76 2.3 SW 33 41 18 22 1016.0 - 0.0
03/08:00am 16.3 13.0 12.7 79 2.0 SW 22 30 12 16 1015.8 - 0.0
03/07:30am 15.8 12.7 12.2 79 2.0 W 20 30 11 16 1015.4 - 0.0
03/07:00am 15.4 12.7 11.6 78 2.1 W 17 24 9 13 1015.2 - 0.0
03/06:30am 15.6 13.3 11.6 77 2.2 W 15 26 8 14 1014.8 - 0.0
03/06:00am 16.0 12.0 11.8 76 2.3 SW 24 33 13 18 1014.4 1014.2 0.0
03/05:30am 16.1 12.1 11.9 76 2.3 SW 24 33 13 18 1014.4 - 0.0
03/05:00am 16.1 12.9 11.9 76 2.3 SW 20 26 11 14 1014.0 - 0.0
03/04:30am 16.2 12.6 11.8 75 2.4 SW 22 30 12 16 1014.4 - 0.0
03/04:00am 16.4 12.5 12.2 76 2.3 SW 24 32 13 17 1014.5 - 0.0
03/03:30am 16.5 13.4 12.1 75 2.4 SW 20 28 11 15 1014.3 - 0.0
03/03:00am 16.6 12.0 12.2 75 2.4 SW 28 35 15 19 1014.4 1014.2 0.0
03/02:30am 17.3 11.3 12.2 72 2.8 SW 35 41 19 22 1014.4 - 0.0
03/02:00am 17.4 10.9 11.7 69 3.1 SW 37 41 20 22 1014.2 - 0.0
03/01:48am 17.4 10.6 12.1 71 2.9 SW 39 43 21 23 1014.1 - 0.0
03/01:30am 17.1 13.6 13.4 79 2.1 W 24 33 13 18 1014.2 - 0.0
03/01:00am 16.9 14.7 13.2 79 2.1 W 17 20 9 11 1014.6 - 0.0
03/12:30am 17.0 14.7 12.9 77 2.3 W 17 22 9 12 1015.1 - 0.0
03/12:00am 17.1 15.4 12.6 75 2.5 W 13 17 7 9 1015.0 1014.8 0.0
 
Date/Time
EDT
Temp
°C
App
Temp
°C
Dew
Point
Rel
Hum
%
Delta-T
°C
Wind Press
QNH
hPa
Press
MSL
hPa
Rain
since 9 am
mm
Dir
 
Spd
km/h
Gust
km/h
Spd
kts
Gust
kts
02/11:30pm 17.0 15.1 12.9 77 2.3 W 15 17 8 9 1015.1 - 0.0
02/11:00pm 16.9 16.4 12.8 77 2.3 WNW 7 13 4 7 1015.2 - 0.0
02/10:30pm 17.1 15.8 12.6 75 2.5 W 11 15 6 8 1015.6 - 0.0
02/10:00pm 17.0 17.3 12.3 74 2.6 N 2 7 1 4 1015.7 - 0.0
02/09:30pm 16.9 15.1 12.2 74 2.6 N 13 20 7 11 1015.5 - 0.0
02/09:00pm 16.7 14.1 12.0 74 2.6 N 17 20 9 11 1015.2 1015.0 0.0
02/08:30pm 16.8 14.2 12.1 74 2.6 N 17 20 9 11 1014.9 - 0.0
02/08:00pm 16.7 13.5 12.0 74 2.6 N 20 24 11 13 1014.6 - 0.0
02/07:30pm 17.0 14.0 11.9 72 2.8 NNE 19 26 10 14 1014.4 - 0.0
02/07:00pm 17.3 14.1 11.8 70 3.0 NNE 20 28 11 15 1014.5 - 0.0
02/06:30pm 17.3 13.7 11.8 70 3.0 NE 22 28 12 15 1014.3 - 0.0
02/06:00pm 17.9 14.3 11.7 67 3.4 NNE 22 30 12 16 1014.7 1014.5 0.0
02/05:30pm 17.7 13.9 11.3 66 3.5 NE 22 28 12 15 1014.6 - 0.0
02/05:00pm 18.0 14.9 11.6 66 3.5 NE 19 24 10 13 1014.9 - 0.0
02/04:30pm 17.8 14.7 11.6 67 3.4 NE 19 26 10 14 1015.2 - 0.0
02/04:00pm 17.5 13.8 11.5 68 3.3 NE 22 30 12 16 1014.3 - 0.0
02/03:30pm 17.6 14.5 12.3 71 2.9 ENE 20 26 11 14 1015.4 - 0.0
02/03:00pm 17.5 14.0 12.2 71 2.9 ENE 22 28 12 15 1015.7 1015.5 0.0
02/02:30pm 17.9 14.7 11.9 68 3.3 ENE 20 24 11 13 1016.1 - 0.0
02/02:00pm 17.6 13.9 12.7 73 2.7 E 24 28 13 15 1015.9 - 0.0
02/01:30pm 18.1 15.2 13.0 72 2.9 E 20 26 11 14 1016.4 - 0.0
02/01:00pm 17.8 14.8 12.5 71 3.0 ENE 20 26 11 14 1016.7 - 0.0
02/12:30pm 18.0 15.2 12.5 70 3.1 E 19 24 10 13 1017.4 - 0.0
02/12:00pm 17.8 14.3 12.3 70 3.1 ENE 22 28 12 15 1017.6 1017.4 0.0
02/11:30am 17.6 14.1 12.1 70 3.0 ENE 22 26 12 14 1018.0 - 0.0
02/11:00am 17.3 14.3 11.8 70 3.0 ENE 19 24 10 13 1018.3 - 0.0
02/10:30am 17.1 14.6 11.2 68 3.2 E 15 19 8 10 1018.5 - 0.0
02/10:00am 16.6 14.8 10.7 68 3.2 E 11 15 6 8 1018.7 - 0.0
02/09:30am 16.7 15.7 11.0 69 3.1 E 7 11 4 6 1018.5 - 0.0
02/09:00am 15.9 14.8 10.7 71 2.8 SE 7 11 4 6 1018.3 1018.1 0.0
02/08:30am 15.9 15.7 11.9 77 2.2 W 4 9 2 5 1018.7 - 0.0
02/08:00am 14.3 12.4 10.5 78 2.0 W 11 13 6 7 1018.6 - 0.0
02/07:30am 14.2 11.9 10.4 78 2.0 W 13 17 7 9 1018.5 - 0.0
02/07:00am 13.9 12.3 10.1 78 2.0 W 9 13 5 7 1018.1 - 0.0
02/06:30am 14.0 11.6 10.0 77 2.1 W 13 15 7 8 1018.2 - 0.0
02/06:00am 14.1 12.1 10.1 77 2.1 W 11 15 6 8 1017.9 1017.7 0.0
02/05:30am 14.0 11.6 10.0 77 2.1 W 13 17 7 9 1017.6 - 0.0
02/05:00am 14.3 11.9 10.1 76 2.2 W 13 15 7 8 1017.4 - 0.0
02/04:30am 14.4 12.4 10.0 75 2.3 W 11 15 6 8 1017.6 - 0.0
02/04:00am 14.8 12.5 10.4 75 2.3 WSW 13 22 7 12 1017.8 - 0.0
02/03:30am 15.0 11.0 10.4 74 2.4 SW 22 28 12 15 1017.8 - 0.0
02/03:00am 15.2 11.1 10.0 71 2.7 WSW 22 32 12 17 1017.7 1017.5 0.0
02/02:30am 15.4 11.7 10.2 71 2.7 SW 20 35 11 19 1016.9 - 0.0
02/02:00am 15.6 10.8 10.2 70 2.8 SW 26 32 14 17 1017.3 - 0.0
02/01:30am 15.6 10.4 10.4 71 2.8 SW 28 37 15 20 1017.1 - 0.0
02/01:00am 15.5 12.0 10.3 71 2.7 SW 19 26 10 14 1017.0 - 0.0
02/12:30am 15.7 10.8 9.8 68 3.1 SW 26 32 14 17 1017.1 - 0.0
02/12:00am 15.7 10.1 10.0 69 3.0 SW 30 37 16 20 1017.0 1016.8 0.0
 
Date/Time
EDT
Temp
°C
App
Temp
°C
Dew
Point
Rel
Hum
%
Delta-T
°C
Wind Press
QNH
hPa
Press
MSL
hPa
Rain
since 9 am
mm
Dir
 
Spd
km/h
Gust
km/h
Spd
kts
Gust
kts
01/11:30pm 15.7 9.9 10.7 72 2.7 WSW 32 35 17 19 1017.2 - 0.0
01/11:00pm 15.7 10.6 10.7 72 2.7 SW 28 35 15 19 1017.3 - 0.0
01/10:30pm 15.7 9.3 10.7 72 2.7 SW 35 41 19 22 1017.3 - 0.0
01/10:00pm 15.7 8.9 10.5 71 2.8 SW 37 44 20 24 1017.0 - 0.0
01/09:30pm 15.8 8.7 11.0 73 2.6 WSW 39 50 21 27 1016.6 - 0.0
01/09:00pm 15.7 8.2 10.9 73 2.6 WSW 41 50 22 27 1016.1 1016.0 0.0
01/08:30pm 15.7 6.3 10.2 70 2.9 WSW 50 61 27 33 1016.0 - 0.0
01/08:00pm 15.9 8.0 10.9 72 2.7 WSW 43 57 23 31 1015.6 - 0.0
01/07:51pm 16.0 7.8 10.5 70 2.9 WSW 44 63 24 34 1015.4 - 0.0
01/07:30pm 16.1 7.6 10.8 71 2.8 WSW 46 54 25 29 1015.1 - 0.0
01/07:00pm 16.2 6.1 10.5 69 3.0 WSW 54 69 29 37 1014.7 - 0.0
01/06:31pm 16.4 6.8 9.6 64 3.6 WSW 50 69 27 37 1014.3 - 0.0
01/06:30pm 16.5 7.5 10.1 66 3.4 WSW 48 65 26 35 1014.4 - 0.0
01/06:21pm 16.8 7.5 10.6 67 3.3 WSW 50 69 27 37 1014.5 - 0.0
01/06:00pm 16.5 5.8 10.4 67 3.2 WSW 57 65 31 35 1014.0 1013.8 0.0
01/05:30pm 16.6 4.8 10.5 67 3.3 SW 63 70 34 38 1013.6 - 0.0
01/05:00pm 16.5 4.4 10.6 68 3.2 SW 65 74 35 40 1013.6 - 0.0
01/04:30pm 16.9 6.1 11.4 70 3.0 SW 59 69 32 37 1013.5 - 0.0
01/04:00pm 16.8 6.0 11.1 69 3.1 WSW 59 70 32 38 1013.2 - 0.0
01/03:30pm 17.2 6.6 12.1 72 2.8 WSW 59 67 32 36 1013.0 - 0.0
01/03:00pm 17.3 8.2 12.4 73 2.7 WSW 52 61 28 33 1012.8 1012.6 0.0
01/02:30pm 17.1 6.8 11.8 71 2.9 SW 57 69 31 37 1012.4 - 0.0
01/02:00pm 16.5 7.0 12.3 76 2.3 SW 54 72 29 39 1012.3 - 0.0
01/01:59pm 16.5 7.0 12.3 76 2.3 SW 54 72 29 39 1012.3 - 0.0
01/01:30pm 17.5 8.2 12.0 70 3.0 WSW 52 63 28 34 1012.2 - 0.0
01/01:00pm 17.1 7.0 12.2 73 2.7 WSW 57 67 31 36 1011.7 - 0.0
01/12:30pm 17.0 6.8 11.9 72 2.8 WSW 57 65 31 35 1011.3 - 0.0
01/12:00pm 16.3 6.1 12.1 76 2.3 SW 57 69 31 37 1011.2 1011.0 0.0
01/11:30am 16.6 5.3 12.2 75 2.4 SW 63 72 34 39 1010.7 - 0.0
01/11:16am 16.5 7.9 12.8 79 2.1 SW 50 76 27 41 1010.8 - 0.0
01/11:09am 15.9 7.1 12.1 78 2.1 SW 50 80 27 43 1010.3 - 0.0
01/11:03am 17.0 7.7 11.9 72 2.8 WSW 52 72 28 39 1010.3 - 0.0
01/11:00am 17.0 7.7 11.9 72 2.8 WSW 52 69 28 37 1010.3 - 0.0
01/10:59am 16.9 8.0 11.8 72 2.8 WSW 50 69 27 37 1010.4 - 0.0
01/10:30am 16.8 6.2 11.9 73 2.7 SW 59 72 32 39 1009.7 - 0.0
01/10:00am 16.6 6.9 11.9 74 2.6 WSW 54 69 29 37 1009.2 - 0.0
01/09:30am 16.6 6.2 11.3 71 2.9 WSW 57 70 31 38 1008.8 - 0.0
01/09:00am 16.5 5.4 11.6 73 2.7 WSW 61 74 33 40 1008.1 1007.9 13.2
01/08:30am 16.5 5.1 10.6 68 3.2 WSW 61 76 33 41 1007.4 - 13.2
01/08:00am 16.3 4.0 11.5 73 2.6 WSW 67 80 36 43 1006.8 - 13.2
01/07:30am 16.4 5.2 12.6 78 2.1 SW 63 74 34 40 1006.5 - 13.2
01/07:00am 16.6 5.5 12.9 79 2.1 SW 63 72 34 39 1005.6 - 13.2
01/06:33am 16.6 7.3 11.9 74 2.6 WSW 52 72 28 39 1005.2 - 13.2
01/06:30am 16.6 8.0 11.7 73 2.7 WSW 48 72 26 39 1005.5 - 13.2
01/06:28am 16.5 7.8 11.4 72 2.8 WSW 48 72 26 39 1005.3 - 13.2
01/06:00am 16.4 3.9 12.0 75 2.4 WSW 69 80 37 43 1004.1 1003.9 13.2
01/05:30am 16.5 4.1 13.0 80 2.0 SW 70 80 38 43 1003.5 - 13.2
01/05:00am 16.3 5.7 13.2 82 1.7 WSW 61 76 33 41 1003.3 - 13.2
01/04:30am 16.4 4.3 13.7 84 1.5 SW 70 83 38 45 1002.6 - 13.2
01/04:00am 16.6 5.8 14.8 89 1.0 SW 65 80 35 43 1002.6 - 13.2
01/03:30am 16.5 7.8 16.3 99 0.1 SW 57 72 31 39 1003.2 - 13.2
01/03:06am 15.8 8.2 15.8 100 0.0 SW 50 69 27 37 1003.0 - 13.2
01/03:00am 15.4 8.1 15.4 100 0.0 SW 48 65 26 35 1002.9 1002.7 13.2
01/02:46am 16.0 8.1 16.0 100 0.0 SW 52 70 28 38 1003.7 - 12.8
01/02:30am 16.0 7.7 16.0 100 0.0 SW 54 67 29 36 1003.1 - 12.8
01/02:00am 17.1 9.7 17.1 100 0.0 SW 52 61 28 33 1003.3 - 12.4
01/01:47am 17.5 11.7 17.5 100 0.0 WSW 44 52 24 28 1003.5 - 12.0
01/01:45am 18.2 15.8 18.2 100 0.0 W 28 50 15 27 1003.5 - 12.0
01/01:30am 18.5 17.7 18.5 100 0.0 NW 20 35 11 19 1003.5 - 12.0
01/01:00am 18.6 18.1 18.6 100 0.0 WNW 19 32 10 17 1003.3 - 11.8
01/12:30am 18.8 18.4 18.8 100 0.0 NNW 19 37 10 20 1003.2 - 11.2
01/12:00am 18.3 18.0 18.3 100 0.0 N 17 20 9 11 1004.0 1003.8 7.2

Other Formats:

Comma delimited format used in spreadsheet applications
http://www.bom.gov.au/fwo/IDV60801/IDV60801.94893.axf

JavaScript Object Notation format (JSON) in row-major order
http://www.bom.gov.au/fwo/IDV60801/IDV60801.94893.json